sensor_id;sensor_type;location;lat;lon;timestamp;temperature;humidity
68912;SHT31;55953;51.650;-0.522;2022-10-28T00:01:27;14.94;87.73
68912;SHT31;55953;51.650;-0.522;2022-10-28T00:03:56;14.91;88.21
68912;SHT31;55953;51.650;-0.522;2022-10-28T00:06:28;14.91;88.16
68912;SHT31;55953;51.650;-0.522;2022-10-28T00:08:59;14.89;87.99
68912;SHT31;55953;51.650;-0.522;2022-10-28T00:11:29;14.91;88.32
68912;SHT31;55953;51.650;-0.522;2022-10-28T00:14:02;14.93;88.44
68912;SHT31;55953;51.650;-0.522;2022-10-28T00:16:33;14.88;88.43
68912;SHT31;55953;51.650;-0.522;2022-10-28T00:19:04;14.92;88.33
68912;SHT31;55953;51.650;-0.522;2022-10-28T00:21:34;14.90;88.43
68912;SHT31;55953;51.650;-0.522;2022-10-28T00:24:05;14.90;88.51
68912;SHT31;55953;51.650;-0.522;2022-10-28T00:26:35;14.90;88.51
68912;SHT31;55953;51.650;-0.522;2022-10-28T00:29:06;14.91;88.56
68912;SHT31;55953;51.650;-0.522;2022-10-28T00:31:37;14.84;88.20
68912;SHT31;55953;51.650;-0.522;2022-10-28T00:34:11;14.78;88.51
68912;SHT31;55953;51.650;-0.522;2022-10-28T00:36:42;14.78;88.90
68912;SHT31;55953;51.650;-0.522;2022-10-28T00:39:13;14.75;88.85
68912;SHT31;55953;51.650;-0.522;2022-10-28T00:41:45;14.68;88.72
68912;SHT31;55953;51.650;-0.522;2022-10-28T00:53:14;14.78;88.54
68912;SHT31;55953;51.650;-0.522;2022-10-28T00:55:49;14.81;88.22
68912;SHT31;55953;51.650;-0.522;2022-10-28T00:58:19;14.80;88.35
68912;SHT31;55953;51.650;-0.522;2022-10-28T01:00:51;14.81;88.45
68912;SHT31;55953;51.650;-0.522;2022-10-28T01:03:19;14.82;88.29
68912;SHT31;55953;51.650;-0.522;2022-10-28T01:05:47;14.83;88.25
68912;SHT31;55953;51.650;-0.522;2022-10-28T01:08:17;14.83;87.92
68912;SHT31;55953;51.650;-0.522;2022-10-28T01:22:32;14.55;87.86
68912;SHT31;55953;51.650;-0.522;2022-10-28T01:35:14;14.46;87.59
68912;SHT31;55953;51.650;-0.522;2022-10-28T01:40:37;14.36;87.66
68912;SHT31;55953;51.650;-0.522;2022-10-28T01:46:01;14.38;88.12
68912;SHT31;55953;51.650;-0.522;2022-10-28T01:48:42;14.42;88.11
68912;SHT31;55953;51.650;-0.522;2022-10-28T01:51:16;14.45;88.22
68912;SHT31;55953;51.650;-0.522;2022-10-28T01:53:54;14.48;87.91
68912;SHT31;55953;51.650;-0.522;2022-10-28T01:56:35;14.47;87.85
68912;SHT31;55953;51.650;-0.522;2022-10-28T01:59:10;14.51;88.15
68912;SHT31;55953;51.650;-0.522;2022-10-28T02:01:43;14.56;88.19
68912;SHT31;55953;51.650;-0.522;2022-10-28T02:04:11;14.58;88.25
68912;SHT31;55953;51.650;-0.522;2022-10-28T02:06:41;14.56;88.13
68912;SHT31;55953;51.650;-0.522;2022-10-28T02:12:28;14.54;88.21
68912;SHT31;55953;51.650;-0.522;2022-10-28T02:15:08;14.49;88.19
68912;SHT31;55953;51.650;-0.522;2022-10-28T02:21:01;14.44;88.40
68912;SHT31;55953;51.650;-0.522;2022-10-28T02:23:44;14.34;88.53
68912;SHT31;55953;51.650;-0.522;2022-10-28T02:28:59;14.28;89.05
68912;SHT31;55953;51.650;-0.522;2022-10-28T02:31:48;14.28;89.39
68912;SHT31;55953;51.650;-0.522;2022-10-28T02:34:24;14.35;89.59
68912;SHT31;55953;51.650;-0.522;2022-10-28T02:37:07;14.40;89.38
68912;SHT31;55953;51.650;-0.522;2022-10-28T02:39:43;14.38;89.43
68912;SHT31;55953;51.650;-0.522;2022-10-28T02:42:24;14.41;89.52
68912;SHT31;55953;51.650;-0.522;2022-10-28T02:44:57;14.45;89.74
68912;SHT31;55953;51.650;-0.522;2022-10-28T02:47:38;14.43;89.43
68912;SHT31;55953;51.650;-0.522;2022-10-28T02:50:14;14.40;89.56
68912;SHT31;55953;51.650;-0.522;2022-10-28T02:52:48;14.40;89.61
68912;SHT31;55953;51.650;-0.522;2022-10-28T02:55:23;14.40;89.61
68912;SHT31;55953;51.650;-0.522;2022-10-28T02:57:58;14.43;89.58
68912;SHT31;55953;51.650;-0.522;2022-10-28T03:00:26;14.49;89.65
68912;SHT31;55953;51.650;-0.522;2022-10-28T03:02:54;14.48;89.51
68912;SHT31;55953;51.650;-0.522;2022-10-28T03:05:22;14.46;89.58
68912;SHT31;55953;51.650;-0.522;2022-10-28T03:07:49;14.47;89.55
68912;SHT31;55953;51.650;-0.522;2022-10-28T03:10:17;14.47;89.56
68912;SHT31;55953;51.650;-0.522;2022-10-28T03:12:45;14.46;89.60
68912;SHT31;55953;51.650;-0.522;2022-10-28T03:15:13;14.52;89.85
68912;SHT31;55953;51.650;-0.522;2022-10-28T03:17:41;14.55;89.88
68912;SHT31;55953;51.650;-0.522;2022-10-28T03:20:09;14.55;89.93
68912;SHT31;55953;51.650;-0.522;2022-10-28T03:22:38;14.55;89.82
68912;SHT31;55953;51.650;-0.522;2022-10-28T03:25:06;14.57;89.99
68912;SHT31;55953;51.650;-0.522;2022-10-28T03:27:34;14.64;90.14
68912;SHT31;55953;51.650;-0.522;2022-10-28T03:30:01;14.68;90.23
68912;SHT31;55953;51.650;-0.522;2022-10-28T03:32:29;14.70;90.25
68912;SHT31;55953;51.650;-0.522;2022-10-28T03:34:57;14.70;90.09
68912;SHT31;55953;51.650;-0.522;2022-10-28T03:37:25;14.74;90.12
68912;SHT31;55953;51.650;-0.522;2022-10-28T03:39:52;14.73;90.09
68912;SHT31;55953;51.650;-0.522;2022-10-28T03:42:20;14.73;90.31
68912;SHT31;55953;51.650;-0.522;2022-10-28T03:44:48;14.77;90.30
68912;SHT31;55953;51.650;-0.522;2022-10-28T03:47:16;14.83;90.30
68912;SHT31;55953;51.650;-0.522;2022-10-28T03:49:44;14.85;90.04
68912;SHT31;55953;51.650;-0.522;2022-10-28T03:52:11;14.81;89.81
68912;SHT31;55953;51.650;-0.522;2022-10-28T03:54:39;14.83;89.83
68912;SHT31;55953;51.650;-0.522;2022-10-28T03:57:07;14.86;89.94
68912;SHT31;55953;51.650;-0.522;2022-10-28T03:59:35;14.84;89.72
68912;SHT31;55953;51.650;-0.522;2022-10-28T04:02:02;14.86;89.89
68912;SHT31;55953;51.650;-0.522;2022-10-28T04:04:30;14.90;89.83
68912;SHT31;55953;51.650;-0.522;2022-10-28T04:06:58;14.90;89.78
68912;SHT31;55953;51.650;-0.522;2022-10-28T04:09:26;14.87;89.88
68912;SHT31;55953;51.650;-0.522;2022-10-28T04:11:53;14.84;89.91
68912;SHT31;55953;51.650;-0.522;2022-10-28T04:14:21;14.84;90.14
68912;SHT31;55953;51.650;-0.522;2022-10-28T04:16:49;14.83;90.16
68912;SHT31;55953;51.650;-0.522;2022-10-28T04:19:17;14.83;90.27
68912;SHT31;55953;51.650;-0.522;2022-10-28T04:21:44;14.84;90.21
68912;SHT31;55953;51.650;-0.522;2022-10-28T04:24:12;14.81;90.13
68912;SHT31;55953;51.650;-0.522;2022-10-28T04:26:40;14.81;90.06
68912;SHT31;55953;51.650;-0.522;2022-10-28T04:29:08;14.77;90.06
68912;SHT31;55953;51.650;-0.522;2022-10-28T04:31:35;14.75;90.06
68912;SHT31;55953;51.650;-0.522;2022-10-28T04:34:03;14.76;90.04
68912;SHT31;55953;51.650;-0.522;2022-10-28T04:36:31;14.67;89.98
68912;SHT31;55953;51.650;-0.522;2022-10-28T04:38:58;14.65;90.16
68912;SHT31;55953;51.650;-0.522;2022-10-28T04:41:26;14.64;90.16
68912;SHT31;55953;51.650;-0.522;2022-10-28T04:43:54;14.67;90.44
68912;SHT31;55953;51.650;-0.522;2022-10-28T04:46:22;14.69;90.28
68912;SHT31;55953;51.650;-0.522;2022-10-28T04:48:50;14.72;90.41
68912;SHT31;55953;51.650;-0.522;2022-10-28T04:51:18;14.75;90.34
68912;SHT31;55953;51.650;-0.522;2022-10-28T04:53:46;14.75;90.36
68912;SHT31;55953;51.650;-0.522;2022-10-28T04:56:13;14.77;90.32
68912;SHT31;55953;51.650;-0.522;2022-10-28T04:58:41;14.77;90.33
68912;SHT31;55953;51.650;-0.522;2022-10-28T05:01:09;14.79;90.36
68912;SHT31;55953;51.650;-0.522;2022-10-28T05:03:37;14.85;90.61
68912;SHT31;55953;51.650;-0.522;2022-10-28T05:06:05;14.89;90.55
68912;SHT31;55953;51.650;-0.522;2022-10-28T05:08:33;14.94;90.59
68912;SHT31;55953;51.650;-0.522;2022-10-28T05:11:01;15.01;90.68
68912;SHT31;55953;51.650;-0.522;2022-10-28T05:13:28;15.07;90.59
68912;SHT31;55953;51.650;-0.522;2022-10-28T05:15:56;15.07;90.50
68912;SHT31;55953;51.650;-0.522;2022-10-28T05:18:24;15.10;90.59
68912;SHT31;55953;51.650;-0.522;2022-10-28T05:20:52;15.10;90.59
68912;SHT31;55953;51.650;-0.522;2022-10-28T05:23:21;15.08;90.58
68912;SHT31;55953;51.650;-0.522;2022-10-28T05:25:56;15.11;90.77
68912;SHT31;55953;51.650;-0.522;2022-10-28T05:28:24;15.18;90.77
68912;SHT31;55953;51.650;-0.522;2022-10-28T05:30:51;15.24;90.64
68912;SHT31;55953;51.650;-0.522;2022-10-28T05:33:19;15.27;90.54
68912;SHT31;55953;51.650;-0.522;2022-10-28T05:35:47;15.27;90.57
68912;SHT31;55953;51.650;-0.522;2022-10-28T05:38:15;15.29;90.54
68912;SHT31;55953;51.650;-0.522;2022-10-28T05:40:43;15.35;90.57
68912;SHT31;55953;51.650;-0.522;2022-10-28T05:43:10;15.34;90.38
68912;SHT31;55953;51.650;-0.522;2022-10-28T05:45:38;15.32;90.39
68912;SHT31;55953;51.650;-0.522;2022-10-28T05:48:06;15.32;90.46
68912;SHT31;55953;51.650;-0.522;2022-10-28T05:50:34;15.30;90.43
68912;SHT31;55953;51.650;-0.522;2022-10-28T05:53:02;15.30;90.41
68912;SHT31;55953;51.650;-0.522;2022-10-28T05:55:29;15.32;90.56
68912;SHT31;55953;51.650;-0.522;2022-10-28T05:57:58;15.39;90.63
68912;SHT31;55953;51.650;-0.522;2022-10-28T06:00:26;15.45;90.50
68912;SHT31;55953;51.650;-0.522;2022-10-28T06:03:04;15.46;90.39
68912;SHT31;55953;51.650;-0.522;2022-10-28T06:05:37;15.46;90.40
68912;SHT31;55953;51.650;-0.522;2022-10-28T06:08:09;15.46;90.42
68912;SHT31;55953;51.650;-0.522;2022-10-28T06:10:39;15.49;90.40
68912;SHT31;55953;51.650;-0.522;2022-10-28T06:13:08;15.46;90.25
68912;SHT31;55953;51.650;-0.522;2022-10-28T06:15:35;15.44;90.44
68912;SHT31;55953;51.650;-0.522;2022-10-28T06:18:03;15.45;90.43
68912;SHT31;55953;51.650;-0.522;2022-10-28T06:20:31;15.48;90.50
68912;SHT31;55953;51.650;-0.522;2022-10-28T06:22:59;15.50;90.43
68912;SHT31;55953;51.650;-0.522;2022-10-28T06:25:27;15.53;90.39
68912;SHT31;55953;51.650;-0.522;2022-10-28T06:27:55;15.51;90.33
68912;SHT31;55953;51.650;-0.522;2022-10-28T06:30:26;15.51;90.40
68912;SHT31;55953;51.650;-0.522;2022-10-28T06:32:57;15.53;90.51
68912;SHT31;55953;51.650;-0.522;2022-10-28T06:35:25;15.54;90.55
68912;SHT31;55953;51.650;-0.522;2022-10-28T06:37:53;15.58;90.53
68912;SHT31;55953;51.650;-0.522;2022-10-28T06:40:25;15.60;90.33
68912;SHT31;55953;51.650;-0.522;2022-10-28T06:43:01;15.65;90.41
68912;SHT31;55953;51.650;-0.522;2022-10-28T06:45:33;15.62;90.25
68912;SHT31;55953;51.650;-0.522;2022-10-28T06:48:03;15.60;90.33
68912;SHT31;55953;51.650;-0.522;2022-10-28T06:50:33;15.56;90.30
68912;SHT31;55953;51.650;-0.522;2022-10-28T06:53:02;15.57;90.52
68912;SHT31;55953;51.650;-0.522;2022-10-28T06:55:30;15.60;90.47
68912;SHT31;55953;51.650;-0.522;2022-10-28T06:57:59;15.63;90.46
68912;SHT31;55953;51.650;-0.522;2022-10-28T07:00:32;15.69;90.42
68912;SHT31;55953;51.650;-0.522;2022-10-28T07:03:02;15.70;90.40
68912;SHT31;55953;51.650;-0.522;2022-10-28T07:05:30;15.72;90.38
68912;SHT31;55953;51.650;-0.522;2022-10-28T07:07:58;15.74;90.44
68912;SHT31;55953;51.650;-0.522;2022-10-28T07:10:26;15.77;90.43
68912;SHT31;55953;51.650;-0.522;2022-10-28T07:12:53;15.82;90.52
68912;SHT31;55953;51.650;-0.522;2022-10-28T07:15:22;15.86;90.38
68912;SHT31;55953;51.650;-0.522;2022-10-28T07:17:53;15.87;90.39
68912;SHT31;55953;51.650;-0.522;2022-10-28T07:20:23;15.93;90.40
68912;SHT31;55953;51.650;-0.522;2022-10-28T07:22:55;15.96;90.36
68912;SHT31;55953;51.650;-0.522;2022-10-28T07:25:28;16.01;90.36
68912;SHT31;55953;51.650;-0.522;2022-10-28T07:27:57;16.05;90.31
68912;SHT31;55953;51.650;-0.522;2022-10-28T07:30:26;16.12;90.24
68912;SHT31;55953;51.650;-0.522;2022-10-28T07:32:55;16.18;90.16
68912;SHT31;55953;51.650;-0.522;2022-10-28T07:35:27;16.24;90.02
68912;SHT31;55953;51.650;-0.522;2022-10-28T07:37:55;16.27;89.95
68912;SHT31;55953;51.650;-0.522;2022-10-28T07:40:25;16.29;90.01
68912;SHT31;55953;51.650;-0.522;2022-10-28T07:42:53;16.33;89.93
68912;SHT31;55953;51.650;-0.522;2022-10-28T07:45:21;16.39;89.93
68912;SHT31;55953;51.650;-0.522;2022-10-28T07:47:49;16.46;89.76
68912;SHT31;55953;51.650;-0.522;2022-10-28T07:50:17;16.51;89.67
68912;SHT31;55953;51.650;-0.522;2022-10-28T07:52:45;16.57;89.57
68912;SHT31;55953;51.650;-0.522;2022-10-28T07:55:13;16.62;89.44
68912;SHT31;55953;51.650;-0.522;2022-10-28T07:57:41;16.68;89.36
68912;SHT31;55953;51.650;-0.522;2022-10-28T08:00:08;16.70;89.26
68912;SHT31;55953;51.650;-0.522;2022-10-28T08:02:37;16.75;89.25
68912;SHT31;55953;51.650;-0.522;2022-10-28T08:05:05;16.83;89.16
68912;SHT31;55953;51.650;-0.522;2022-10-28T08:07:33;16.89;89.03
68912;SHT31;55953;51.650;-0.522;2022-10-28T08:10:05;16.94;88.79
68912;SHT31;55953;51.650;-0.522;2022-10-28T08:12:34;16.96;88.58
68912;SHT31;55953;51.650;-0.522;2022-10-28T08:15:02;16.97;88.52
68912;SHT31;55953;51.650;-0.522;2022-10-28T08:17:31;16.99;88.47
68912;SHT31;55953;51.650;-0.522;2022-10-28T08:19:59;16.99;88.48
68912;SHT31;55953;51.650;-0.522;2022-10-28T08:22:26;17.01;88.37
68912;SHT31;55953;51.650;-0.522;2022-10-28T08:24:54;17.02;88.27
68912;SHT31;55953;51.650;-0.522;2022-10-28T08:27:22;17.05;88.22
68912;SHT31;55953;51.650;-0.522;2022-10-28T08:29:50;17.09;88.07
68912;SHT31;55953;51.650;-0.522;2022-10-28T08:32:19;17.16;88.05
68912;SHT31;55953;51.650;-0.522;2022-10-28T08:34:47;17.20;87.97
68912;SHT31;55953;51.650;-0.522;2022-10-28T08:37:15;17.27;88.00
68912;SHT31;55953;51.650;-0.522;2022-10-28T08:39:43;17.35;87.84
68912;SHT31;55953;51.650;-0.522;2022-10-28T08:45:13;17.46;87.19
68912;SHT31;55953;51.650;-0.522;2022-10-28T08:50:44;17.47;86.68
68912;SHT31;55953;51.650;-0.522;2022-10-28T08:53:18;17.48;86.43
68912;SHT31;55953;51.650;-0.522;2022-10-28T08:56:04;17.51;86.24
68912;SHT31;55953;51.650;-0.522;2022-10-28T08:58:41;17.59;85.80
68912;SHT31;55953;51.650;-0.522;2022-10-28T09:01:29;17.64;85.24
68912;SHT31;55953;51.650;-0.522;2022-10-28T09:07:16;17.61;83.83
68912;SHT31;55953;51.650;-0.522;2022-10-28T09:09:47;17.58;83.36
68912;SHT31;55953;51.650;-0.522;2022-10-28T09:12:34;17.59;83.30
68912;SHT31;55953;51.650;-0.522;2022-10-28T09:18:18;17.53;82.19
68912;SHT31;55953;51.650;-0.522;2022-10-28T09:21:35;17.54;82.42
68912;SHT31;55953;51.650;-0.522;2022-10-28T09:24:24;17.57;82.05
68912;SHT31;55953;51.650;-0.522;2022-10-28T09:27:28;17.57;81.72
68912;SHT31;55953;51.650;-0.522;2022-10-28T09:30:25;17.55;81.72
68912;SHT31;55953;51.650;-0.522;2022-10-28T09:33:27;17.54;82.03
68912;SHT31;55953;51.650;-0.522;2022-10-28T09:36:03;17.50;81.45
68912;SHT31;55953;51.650;-0.522;2022-10-28T09:38:37;17.50;81.39
68912;SHT31;55953;51.650;-0.522;2022-10-28T09:46:41;17.56;80.81
68912;SHT31;55953;51.650;-0.522;2022-10-28T09:49:17;17.57;79.93
68912;SHT31;55953;51.650;-0.522;2022-10-28T09:51:51;17.56;79.76
68912;SHT31;55953;51.650;-0.522;2022-10-28T09:54:35;17.57;79.27
68912;SHT31;55953;51.650;-0.522;2022-10-28T09:57:08;17.54;79.03
68912;SHT31;55953;51.650;-0.522;2022-10-28T09:59:41;17.55;78.93
68912;SHT31;55953;51.650;-0.522;2022-10-28T10:02:25;17.55;78.87
68912;SHT31;55953;51.650;-0.522;2022-10-28T10:04:58;17.53;78.60
68912;SHT31;55953;51.650;-0.522;2022-10-28T10:07:39;17.55;79.01
68912;SHT31;55953;51.650;-0.522;2022-10-28T10:10:13;17.57;78.99
68912;SHT31;55953;51.650;-0.522;2022-10-28T10:12:48;17.61;78.78
68912;SHT31;55953;51.650;-0.522;2022-10-28T10:16:03;17.65;79.03
68912;SHT31;55953;51.650;-0.522;2022-10-28T10:18:22;17.65;78.62
68912;SHT31;55953;51.650;-0.522;2022-10-28T10:20:56;17.66;78.79
68912;SHT31;55953;51.650;-0.522;2022-10-28T10:23:32;17.66;78.48
68912;SHT31;55953;51.650;-0.522;2022-10-28T10:26:12;17.66;77.98
68912;SHT31;55953;51.650;-0.522;2022-10-28T10:28:45;17.66;78.02
68912;SHT31;55953;51.650;-0.522;2022-10-28T10:31:19;17.69;78.44
68912;SHT31;55953;51.650;-0.522;2022-10-28T10:33:52;17.72;78.26
68912;SHT31;55953;51.650;-0.522;2022-10-28T10:36:23;17.74;78.10
68912;SHT31;55953;51.650;-0.522;2022-10-28T10:38:56;17.83;78.61
68912;SHT31;55953;51.650;-0.522;2022-10-28T10:41:33;17.93;77.70
68912;SHT31;55953;51.650;-0.522;2022-10-28T10:47:35;18.08;77.11
68912;SHT31;55953;51.650;-0.522;2022-10-28T10:49:36;18.21;77.28
68912;SHT31;55953;51.650;-0.522;2022-10-28T10:52:05;18.31;77.14
68912;SHT31;55953;51.650;-0.522;2022-10-28T10:54:57;18.35;77.22
68912;SHT31;55953;51.650;-0.522;2022-10-28T10:57:34;18.29;76.89
68912;SHT31;55953;51.650;-0.522;2022-10-28T11:00:03;18.18;76.91
68912;SHT31;55953;51.650;-0.522;2022-10-28T11:02:33;18.14;76.28
68912;SHT31;55953;51.650;-0.522;2022-10-28T11:05:07;18.19;76.63
68912;SHT31;55953;51.650;-0.522;2022-10-28T11:07:37;18.28;76.46
68912;SHT31;55953;51.650;-0.522;2022-10-28T11:10:21;18.27;76.19
68912;SHT31;55953;51.650;-0.522;2022-10-28T11:13:00;18.13;76.48
68912;SHT31;55953;51.650;-0.522;2022-10-28T11:15:32;18.00;76.65
68912;SHT31;55953;51.650;-0.522;2022-10-28T11:18:01;17.92;76.69
68912;SHT31;55953;51.650;-0.522;2022-10-28T11:26:30;17.61;77.06
68912;SHT31;55953;51.650;-0.522;2022-10-28T11:29:10;17.57;76.92
68912;SHT31;55953;51.650;-0.522;2022-10-28T11:37:39;17.66;77.28
68912;SHT31;55953;51.650;-0.522;2022-10-28T11:49:37;18.03;75.99
68912;SHT31;55953;51.650;-0.522;2022-10-28T11:52:17;17.97;75.56
68912;SHT31;55953;51.650;-0.522;2022-10-28T11:55:17;17.90;75.87
68912;SHT31;55953;51.650;-0.522;2022-10-28T12:14:42;17.87;76.28
68912;SHT31;55953;51.650;-0.522;2022-10-28T12:17:34;17.90;76.47
68912;SHT31;55953;51.650;-0.522;2022-10-28T12:20:21;17.94;76.40
68912;SHT31;55953;51.650;-0.522;2022-10-28T12:22:59;17.93;75.68
68912;SHT31;55953;51.650;-0.522;2022-10-28T12:25:39;17.97;75.51
68912;SHT31;55953;51.650;-0.522;2022-10-28T12:28:20;18.00;75.84
68912;SHT31;55953;51.650;-0.522;2022-10-28T12:30:55;18.08;75.25
68912;SHT31;55953;51.650;-0.522;2022-10-28T12:33:26;18.14;74.57
68912;SHT31;55953;51.650;-0.522;2022-10-28T12:41:05;18.44;74.38
68912;SHT31;55953;51.650;-0.522;2022-10-28T12:43:43;18.46;73.48
68912;SHT31;55953;51.650;-0.522;2022-10-28T12:52:21;18.52;72.61
68912;SHT31;55953;51.650;-0.522;2022-10-28T12:54:59;18.52;73.07
68912;SHT31;55953;51.650;-0.522;2022-10-28T12:57:47;18.53;73.20
68912;SHT31;55953;51.650;-0.522;2022-10-28T13:00:28;18.51;72.58
68912;SHT31;55953;51.650;-0.522;2022-10-28T13:03:06;18.53;72.50
68912;SHT31;55953;51.650;-0.522;2022-10-28T13:05:45;18.55;71.63
68912;SHT31;55953;51.650;-0.522;2022-10-28T13:21:06;18.68;70.75
68912;SHT31;55953;51.650;-0.522;2022-10-28T13:24:03;18.71;70.81
68912;SHT31;55953;51.650;-0.522;2022-10-28T13:26:42;18.74;69.43
68912;SHT31;55953;51.650;-0.522;2022-10-28T13:29:31;18.75;70.28
68912;SHT31;55953;51.650;-0.522;2022-10-28T13:32:01;18.83;68.96
68912;SHT31;55953;51.650;-0.522;2022-10-28T13:34:30;18.90;70.09
68912;SHT31;55953;51.650;-0.522;2022-10-28T13:37:05;18.93;68.32
68912;SHT31;55953;51.650;-0.522;2022-10-28T13:39:47;18.91;68.71
68912;SHT31;55953;51.650;-0.522;2022-10-28T13:55:21;18.48;65.29
68912;SHT31;55953;51.650;-0.522;2022-10-28T13:58:13;18.42;65.76
68912;SHT31;55953;51.650;-0.522;2022-10-28T14:00:48;18.39;64.97
68912;SHT31;55953;51.650;-0.522;2022-10-28T14:03:20;18.36;64.50
68912;SHT31;55953;51.650;-0.522;2022-10-28T14:06:00;18.33;64.48
68912;SHT31;55953;51.650;-0.522;2022-10-28T14:08:29;18.26;64.14
68912;SHT31;55953;51.650;-0.522;2022-10-28T14:11:10;18.15;63.86
68912;SHT31;55953;51.650;-0.522;2022-10-28T14:13:55;18.09;65.15
68912;SHT31;55953;51.650;-0.522;2022-10-28T14:16:29;18.07;64.50
68912;SHT31;55953;51.650;-0.522;2022-10-28T14:19:13;18.04;64.24
68912;SHT31;55953;51.650;-0.522;2022-10-28T14:24:38;18.00;65.14
68912;SHT31;55953;51.650;-0.522;2022-10-28T14:29:42;17.91;65.94
68912;SHT31;55953;51.650;-0.522;2022-10-28T14:41:02;17.69;63.78
68912;SHT31;55953;51.650;-0.522;2022-10-28T14:43:46;17.61;63.85
68912;SHT31;55953;51.650;-0.522;2022-10-28T14:52:29;17.36;64.58
68912;SHT31;55953;51.650;-0.522;2022-10-28T14:55:06;17.32;64.10
68912;SHT31;55953;51.650;-0.522;2022-10-28T14:58:10;17.32;64.87
68912;SHT31;55953;51.650;-0.522;2022-10-28T15:00:40;17.33;64.80
68912;SHT31;55953;51.650;-0.522;2022-10-28T15:03:38;17.29;64.74
68912;SHT31;55953;51.650;-0.522;2022-10-28T15:12:00;17.16;64.37
68912;SHT31;55953;51.650;-0.522;2022-10-28T15:14:55;17.09;64.87
68912;SHT31;55953;51.650;-0.522;2022-10-28T15:17:25;17.01;64.78
68912;SHT31;55953;51.650;-0.522;2022-10-28T15:20:25;16.97;65.41
68912;SHT31;55953;51.650;-0.522;2022-10-28T15:23:18;16.94;65.43
68912;SHT31;55953;51.650;-0.522;2022-10-28T15:28:55;16.89;66.20
68912;SHT31;55953;51.650;-0.522;2022-10-28T15:31:24;16.81;66.49
68912;SHT31;55953;51.650;-0.522;2022-10-28T15:33:52;16.79;66.82
68912;SHT31;55953;51.650;-0.522;2022-10-28T15:36:23;16.79;67.31
68912;SHT31;55953;51.650;-0.522;2022-10-28T15:39:06;16.76;67.45
68912;SHT31;55953;51.650;-0.522;2022-10-28T15:41:46;16.74;67.74
68912;SHT31;55953;51.650;-0.522;2022-10-28T15:44:29;16.72;67.68
68912;SHT31;55953;51.650;-0.522;2022-10-28T15:52:49;16.57;68.01
68912;SHT31;55953;51.650;-0.522;2022-10-28T15:55:23;16.55;67.91
68912;SHT31;55953;51.650;-0.522;2022-10-28T16:00:52;16.46;68.30
68912;SHT31;55953;51.650;-0.522;2022-10-28T16:06:37;16.32;68.03
68912;SHT31;55953;51.650;-0.522;2022-10-28T16:11:57;16.14;68.61
68912;SHT31;55953;51.650;-0.522;2022-10-28T16:14:47;16.05;68.94
68912;SHT31;55953;51.650;-0.522;2022-10-28T16:17:28;15.94;69.29
68912;SHT31;55953;51.650;-0.522;2022-10-28T16:20:12;15.83;69.31
68912;SHT31;55953;51.650;-0.522;2022-10-28T16:22:49;15.67;69.67
68912;SHT31;55953;51.650;-0.522;2022-10-28T16:25:22;15.56;70.19
68912;SHT31;55953;51.650;-0.522;2022-10-28T16:27:51;15.50;70.66
68912;SHT31;55953;51.650;-0.522;2022-10-28T16:30:23;15.43;70.99
68912;SHT31;55953;51.650;-0.522;2022-10-28T16:32:51;15.32;71.30
68912;SHT31;55953;51.650;-0.522;2022-10-28T16:35:20;15.19;71.48
68912;SHT31;55953;51.650;-0.522;2022-10-28T16:37:50;15.12;71.76
68912;SHT31;55953;51.650;-0.522;2022-10-28T16:40:22;15.03;71.96
68912;SHT31;55953;51.650;-0.522;2022-10-28T16:43:12;14.89;72.32
68912;SHT31;55953;51.650;-0.522;2022-10-28T16:45:43;14.80;72.52
68912;SHT31;55953;51.650;-0.522;2022-10-28T16:48:11;14.73;72.67
68912;SHT31;55953;51.650;-0.522;2022-10-28T16:50:42;14.63;72.91
68912;SHT31;55953;51.650;-0.522;2022-10-28T16:53:15;14.52;73.18
68912;SHT31;55953;51.650;-0.522;2022-10-28T16:55:44;14.48;73.21
68912;SHT31;55953;51.650;-0.522;2022-10-28T16:58:12;14.42;73.44
68912;SHT31;55953;51.650;-0.522;2022-10-28T17:00:40;14.33;73.65
68912;SHT31;55953;51.650;-0.522;2022-10-28T17:03:12;14.23;73.87
68912;SHT31;55953;51.650;-0.522;2022-10-28T17:05:43;14.15;73.91
68912;SHT31;55953;51.650;-0.522;2022-10-28T17:08:11;14.09;74.44
68912;SHT31;55953;51.650;-0.522;2022-10-28T17:10:40;14.01;74.60
68912;SHT31;55953;51.650;-0.522;2022-10-28T17:13:12;13.91;74.88
68912;SHT31;55953;51.650;-0.522;2022-10-28T17:15:41;13.86;74.97
68912;SHT31;55953;51.650;-0.522;2022-10-28T17:18:10;13.84;75.04
68912;SHT31;55953;51.650;-0.522;2022-10-28T17:20:41;13.77;75.37
68912;SHT31;55953;51.650;-0.522;2022-10-28T17:23:09;13.68;75.57
68912;SHT31;55953;51.650;-0.522;2022-10-28T17:25:36;13.61;76.01
68912;SHT31;55953;51.650;-0.522;2022-10-28T17:28:04;13.58;76.20
68912;SHT31;55953;51.650;-0.522;2022-10-28T17:30:32;13.52;76.14
68912;SHT31;55953;51.650;-0.522;2022-10-28T17:33:00;13.47;76.40
68912;SHT31;55953;51.650;-0.522;2022-10-28T17:35:27;13.45;76.61
68912;SHT31;55953;51.650;-0.522;2022-10-28T17:37:55;13.43;76.51
68912;SHT31;55953;51.650;-0.522;2022-10-28T17:40:23;13.39;76.76
68912;SHT31;55953;51.650;-0.522;2022-10-28T17:42:51;13.35;77.00
68912;SHT31;55953;51.650;-0.522;2022-10-28T17:45:20;13.31;77.23
68912;SHT31;55953;51.650;-0.522;2022-10-28T17:47:48;13.22;77.63
68912;SHT31;55953;51.650;-0.522;2022-10-28T17:50:16;13.14;77.94
68912;SHT31;55953;51.650;-0.522;2022-10-28T17:52:44;13.06;78.33
68912;SHT31;55953;51.650;-0.522;2022-10-28T17:55:12;13.02;78.41
68912;SHT31;55953;51.650;-0.522;2022-10-28T17:57:39;13.02;78.57
68912;SHT31;55953;51.650;-0.522;2022-10-28T18:00:07;13.00;78.40
68912;SHT31;55953;51.650;-0.522;2022-10-28T18:02:39;12.91;78.52
68912;SHT31;55953;51.650;-0.522;2022-10-28T18:05:07;12.87;78.86
68912;SHT31;55953;51.650;-0.522;2022-10-28T18:07:35;12.83;79.00
68912;SHT31;55953;51.650;-0.522;2022-10-28T18:10:03;12.84;79.21
68912;SHT31;55953;51.650;-0.522;2022-10-28T18:12:32;12.79;79.44
68912;SHT31;55953;51.650;-0.522;2022-10-28T18:15:00;12.76;79.54
68912;SHT31;55953;51.650;-0.522;2022-10-28T18:17:27;12.67;79.78
68912;SHT31;55953;51.650;-0.522;2022-10-28T18:19:55;12.60;79.83
68912;SHT31;55953;51.650;-0.522;2022-10-28T18:22:24;12.49;80.06
68912;SHT31;55953;51.650;-0.522;2022-10-28T18:24:56;12.47;80.35
68912;SHT31;55953;51.650;-0.522;2022-10-28T18:27:24;12.44;80.23
68912;SHT31;55953;51.650;-0.522;2022-10-28T18:29:55;12.41;80.51
68912;SHT31;55953;51.650;-0.522;2022-10-28T18:32:22;12.38;80.65
68912;SHT31;55953;51.650;-0.522;2022-10-28T18:34:50;12.38;80.79
68912;SHT31;55953;51.650;-0.522;2022-10-28T18:37:18;12.37;80.72
68912;SHT31;55953;51.650;-0.522;2022-10-28T18:39:46;12.33;80.93
68912;SHT31;55953;51.650;-0.522;2022-10-28T18:42:13;12.30;81.02
68912;SHT31;55953;51.650;-0.522;2022-10-28T18:44:48;12.27;81.01
68912;SHT31;55953;51.650;-0.522;2022-10-28T18:47:15;12.27;80.87
68912;SHT31;55953;51.650;-0.522;2022-10-28T18:49:43;12.28;80.92
68912;SHT31;55953;51.650;-0.522;2022-10-28T18:52:12;12.25;81.10
68912;SHT31;55953;51.650;-0.522;2022-10-28T18:54:39;12.16;81.14